sensor_id;sensor_type;location;lat;lon;timestamp;P1;durP1;ratioP1;P2;durP2;ratioP2
25341;SDS011;13298;48.792;9.154;2023-12-22T00:00:29;4.55;;;0.70;;
25341;SDS011;13298;48.792;9.154;2023-12-22T00:02:55;1.90;;;0.85;;
25341;SDS011;13298;48.792;9.154;2023-12-22T00:05:21;1.92;;;0.60;;
25341;SDS011;13298;48.792;9.154;2023-12-22T00:07:46;4.43;;;0.73;;
25341;SDS011;13298;48.792;9.154;2023-12-22T00:10:12;4.78;;;0.80;;
25341;SDS011;13298;48.792;9.154;2023-12-22T00:12:38;4.38;;;1.00;;
25341;SDS011;13298;48.792;9.154;2023-12-22T00:15:04;5.93;;;1.25;;
25341;SDS011;13298;48.792;9.154;2023-12-22T00:17:30;5.28;;;1.23;;
25341;SDS011;13298;48.792;9.154;2023-12-22T00:19:56;11.55;;;1.60;;
25341;SDS011;13298;48.792;9.154;2023-12-22T00:22:24;4.60;;;1.38;;
25341;SDS011;13298;48.792;9.154;2023-12-22T00:24:53;9.00;;;1.63;;
25341;SDS011;13298;48.792;9.154;2023-12-22T00:27:18;9.23;;;1.67;;
25341;SDS011;13298;48.792;9.154;2023-12-22T00:29:44;10.60;;;1.80;;
25341;SDS011;13298;48.792;9.154;2023-12-22T00:32:10;8.23;;;1.45;;
25341;SDS011;13298;48.792;9.154;2023-12-22T00:34:35;5.22;;;1.40;;
25341;SDS011;13298;48.792;9.154;2023-12-22T00:37:01;10.55;;;1.88;;
25341;SDS011;13298;48.792;9.154;2023-12-22T00:39:29;5.28;;;1.30;;
25341;SDS011;13298;48.792;9.154;2023-12-22T00:41:55;5.63;;;1.17;;
25341;SDS011;13298;48.792;9.154;2023-12-22T00:44:21;8.27;;;1.73;;
25341;SDS011;13298;48.792;9.154;2023-12-22T00:46:47;6.18;;;1.33;;
25341;SDS011;13298;48.792;9.154;2023-12-22T00:49:13;3.72;;;1.10;;
25341;SDS011;13298;48.792;9.154;2023-12-22T00:51:39;2.65;;;0.90;;
25341;SDS011;13298;48.792;9.154;2023-12-22T00:54:04;5.18;;;1.10;;
25341;SDS011;13298;48.792;9.154;2023-12-22T00:56:30;6.47;;;1.25;;
25341;SDS011;13298;48.792;9.154;2023-12-22T00:58:56;5.07;;;0.98;;
25341;SDS011;13298;48.792;9.154;2023-12-22T01:01:21;7.25;;;0.90;;
25341;SDS011;13298;48.792;9.154;2023-12-22T01:03:50;3.58;;;0.90;;
25341;SDS011;13298;48.792;9.154;2023-12-22T01:06:16;3.55;;;1.00;;
25341;SDS011;13298;48.792;9.154;2023-12-22T01:08:42;5.15;;;1.08;;
25341;SDS011;13298;48.792;9.154;2023-12-22T01:11:07;6.40;;;1.20;;
25341;SDS011;13298;48.792;9.154;2023-12-22T01:13:33;6.20;;;1.42;;
25341;SDS011;13298;48.792;9.154;2023-12-22T01:15:59;6.45;;;1.27;;
25341;SDS011;13298;48.792;9.154;2023-12-22T01:18:24;5.28;;;1.20;;
25341;SDS011;13298;48.792;9.154;2023-12-22T01:20:54;4.75;;;1.10;;
25341;SDS011;13298;48.792;9.154;2023-12-22T01:23:19;3.20;;;1.25;;
25341;SDS011;13298;48.792;9.154;2023-12-22T01:25:45;3.83;;;1.10;;
25341;SDS011;13298;48.792;9.154;2023-12-22T01:28:11;6.78;;;1.40;;
25341;SDS011;13298;48.792;9.154;2023-12-22T01:30:37;4.90;;;1.08;;
25341;SDS011;13298;48.792;9.154;2023-12-22T01:33:02;6.68;;;1.35;;
25341;SDS011;13298;48.792;9.154;2023-12-22T01:35:28;5.80;;;1.20;;
25341;SDS011;13298;48.792;9.154;2023-12-22T01:37:54;5.80;;;0.75;;
25341;SDS011;13298;48.792;9.154;2023-12-22T01:40:21;8.15;;;1.25;;
25341;SDS011;13298;48.792;9.154;2023-12-22T01:42:47;3.00;;;0.70;;
25341;SDS011;13298;48.792;9.154;2023-12-22T01:45:13;4.88;;;0.80;;
25341;SDS011;13298;48.792;9.154;2023-12-22T01:47:38;5.18;;;0.80;;
25341;SDS011;13298;48.792;9.154;2023-12-22T01:50:05;2.38;;;0.80;;
25341;SDS011;13298;48.792;9.154;2023-12-22T01:52:31;4.63;;;0.90;;
25341;SDS011;13298;48.792;9.154;2023-12-22T01:54:57;6.68;;;0.80;;
25341;SDS011;13298;48.792;9.154;2023-12-22T01:57:22;4.43;;;0.73;;
25341;SDS011;13298;48.792;9.154;2023-12-22T01:59:48;3.35;;;0.75;;
25341;SDS011;13298;48.792;9.154;2023-12-22T02:02:14;6.10;;;0.75;;
25341;SDS011;13298;48.792;9.154;2023-12-22T02:04:41;5.80;;;0.65;;
25341;SDS011;13298;48.792;9.154;2023-12-22T02:07:08;4.47;;;0.75;;
25341;SDS011;13298;48.792;9.154;2023-12-22T02:09:35;1.92;;;0.60;;
25341;SDS011;13298;48.792;9.154;2023-12-22T02:12:02;2.78;;;0.65;;
25341;SDS011;13298;48.792;9.154;2023-12-22T02:14:28;1.73;;;0.60;;
25341;SDS011;13298;48.792;9.154;2023-12-22T02:17:02;1.27;;;0.63;;
25341;SDS011;13298;48.792;9.154;2023-12-22T02:19:57;1.63;;;0.50;;
25341;SDS011;13298;48.792;9.154;2023-12-22T02:22:24;2.70;;;0.70;;
25341;SDS011;13298;48.792;9.154;2023-12-22T02:24:50;2.38;;;0.50;;
25341;SDS011;13298;48.792;9.154;2023-12-22T02:33:21;2.75;;;0.68;;
25341;SDS011;13298;48.792;9.154;2023-12-22T02:35:49;6.72;;;0.70;;
25341;SDS011;13298;48.792;9.154;2023-12-22T02:38:16;3.63;;;1.10;;
25341;SDS011;13298;48.792;9.154;2023-12-22T02:40:43;6.05;;;0.75;;
25341;SDS011;13298;48.792;9.154;2023-12-22T02:43:09;4.88;;;0.80;;
25341;SDS011;13298;48.792;9.154;2023-12-22T02:45:36;5.45;;;0.90;;
25341;SDS011;13298;48.792;9.154;2023-12-22T02:48:01;5.55;;;0.90;;
25341;SDS011;13298;48.792;9.154;2023-12-22T02:50:27;3.45;;;0.73;;
25341;SDS011;13298;48.792;9.154;2023-12-22T02:52:53;3.22;;;0.70;;
25341;SDS011;13298;48.792;9.154;2023-12-22T02:55:19;4.53;;;1.20;;
25341;SDS011;13298;48.792;9.154;2023-12-22T02:57:44;5.82;;;1.05;;
25341;SDS011;13298;48.792;9.154;2023-12-22T03:00:10;4.70;;;0.95;;
25341;SDS011;13298;48.792;9.154;2023-12-22T03:02:36;6.05;;;0.73;;
25341;SDS011;13298;48.792;9.154;2023-12-22T03:05:02;4.22;;;1.10;;
25341;SDS011;13298;48.792;9.154;2023-12-22T03:07:29;6.45;;;1.17;;
25341;SDS011;13298;48.792;9.154;2023-12-22T03:09:55;5.72;;;0.80;;
25341;SDS011;13298;48.792;9.154;2023-12-22T03:12:21;3.30;;;0.60;;
25341;SDS011;13298;48.792;9.154;2023-12-22T03:14:46;5.95;;;0.95;;
25341;SDS011;13298;48.792;9.154;2023-12-22T03:17:12;5.63;;;1.15;;
25341;SDS011;13298;48.792;9.154;2023-12-22T03:19:38;3.65;;;0.93;;
25341;SDS011;13298;48.792;9.154;2023-12-22T03:22:04;1.85;;;0.60;;
25341;SDS011;13298;48.792;9.154;2023-12-22T03:24:30;4.03;;;0.73;;
25341;SDS011;13298;48.792;9.154;2023-12-22T03:26:56;1.95;;;0.77;;
25341;SDS011;13298;48.792;9.154;2023-12-22T03:29:21;2.05;;;0.60;;
25341;SDS011;13298;48.792;9.154;2023-12-22T03:31:47;3.50;;;0.70;;
25341;SDS011;13298;48.792;9.154;2023-12-22T03:34:13;7.38;;;1.23;;
25341;SDS011;13298;48.792;9.154;2023-12-22T03:36:39;2.22;;;0.70;;
25341;SDS011;13298;48.792;9.154;2023-12-22T03:39:05;6.88;;;0.80;;
25341;SDS011;13298;48.792;9.154;2023-12-22T03:41:31;4.93;;;0.70;;
25341;SDS011;13298;48.792;9.154;2023-12-22T03:43:56;7.35;;;1.58;;
25341;SDS011;13298;48.792;9.154;2023-12-22T03:46:23;7.28;;;1.00;;
25341;SDS011;13298;48.792;9.154;2023-12-22T03:48:52;4.25;;;0.80;;
25341;SDS011;13298;48.792;9.154;2023-12-22T03:51:18;5.43;;;1.10;;
25341;SDS011;13298;48.792;9.154;2023-12-22T03:53:43;4.28;;;0.85;;
25341;SDS011;13298;48.792;9.154;2023-12-22T03:56:09;3.92;;;0.90;;
25341;SDS011;13298;48.792;9.154;2023-12-22T03:58:35;3.75;;;0.73;;
25341;SDS011;13298;48.792;9.154;2023-12-22T04:01:01;3.38;;;0.98;;
25341;SDS011;13298;48.792;9.154;2023-12-22T04:03:27;4.80;;;1.08;;
25341;SDS011;13298;48.792;9.154;2023-12-22T04:05:53;4.38;;;0.90;;
25341;SDS011;13298;48.792;9.154;2023-12-22T04:08:19;4.00;;;1.08;;
25341;SDS011;13298;48.792;9.154;2023-12-22T04:10:47;5.20;;;0.90;;
25341;SDS011;13298;48.792;9.154;2023-12-22T04:13:13;8.73;;;1.10;;
25341;SDS011;13298;48.792;9.154;2023-12-22T04:15:39;4.70;;;1.00;;
25341;SDS011;13298;48.792;9.154;2023-12-22T04:18:05;6.72;;;1.10;;
25341;SDS011;13298;48.792;9.154;2023-12-22T04:20:31;6.93;;;1.00;;
25341;SDS011;13298;48.792;9.154;2023-12-22T04:22:57;3.42;;;1.02;;
25341;SDS011;13298;48.792;9.154;2023-12-22T04:25:23;10.63;;;1.05;;
25341;SDS011;13298;48.792;9.154;2023-12-22T04:27:50;6.32;;;1.20;;
25341;SDS011;13298;48.792;9.154;2023-12-22T04:30:16;6.22;;;1.08;;
25341;SDS011;13298;48.792;9.154;2023-12-22T04:32:41;5.15;;;1.42;;
25341;SDS011;13298;48.792;9.154;2023-12-22T04:35:07;3.10;;;0.98;;
25341;SDS011;13298;48.792;9.154;2023-12-22T04:37:33;5.97;;;0.90;;
25341;SDS011;13298;48.792;9.154;2023-12-22T04:39:59;4.65;;;1.02;;
25341;SDS011;13298;48.792;9.154;2023-12-22T04:42:24;6.25;;;1.40;;
25341;SDS011;13298;48.792;9.154;2023-12-22T04:44:50;10.32;;;1.10;;
25341;SDS011;13298;48.792;9.154;2023-12-22T04:47:17;5.97;;;1.08;;
25341;SDS011;13298;48.792;9.154;2023-12-22T04:49:42;7.20;;;0.65;;
25341;SDS011;13298;48.792;9.154;2023-12-22T04:52:09;4.93;;;0.73;;
25341;SDS011;13298;48.792;9.154;2023-12-22T04:54:38;7.15;;;0.65;;
25341;SDS011;13298;48.792;9.154;2023-12-22T04:57:04;2.10;;;0.88;;
25341;SDS011;13298;48.792;9.154;2023-12-22T04:59:30;7.13;;;0.85;;
25341;SDS011;13298;48.792;9.154;2023-12-22T05:01:55;1.92;;;0.70;;
25341;SDS011;13298;48.792;9.154;2023-12-22T05:04:21;3.72;;;0.63;;
25341;SDS011;13298;48.792;9.154;2023-12-22T05:06:47;1.77;;;0.57;;
25341;SDS011;13298;48.792;9.154;2023-12-22T05:09:13;5.70;;;1.00;;
25341;SDS011;13298;48.792;9.154;2023-12-22T05:11:40;4.55;;;1.17;;
25341;SDS011;13298;48.792;9.154;2023-12-22T05:14:06;4.40;;;1.13;;
25341;SDS011;13298;48.792;9.154;2023-12-22T05:16:31;5.32;;;1.13;;
25341;SDS011;13298;48.792;9.154;2023-12-22T05:18:57;5.60;;;1.00;;
25341;SDS011;13298;48.792;9.154;2023-12-22T05:21:23;12.02;;;1.80;;
25341;SDS011;13298;48.792;9.154;2023-12-22T05:23:49;6.45;;;1.35;;
25341;SDS011;13298;48.792;9.154;2023-12-22T05:26:19;10.77;;;1.67;;
25341;SDS011;13298;48.792;9.154;2023-12-22T05:28:46;14.18;;;1.85;;
25341;SDS011;13298;48.792;9.154;2023-12-22T05:31:14;7.75;;;1.50;;
25341;SDS011;13298;48.792;9.154;2023-12-22T05:33:41;5.78;;;1.42;;
25341;SDS011;13298;48.792;9.154;2023-12-22T05:36:06;11.65;;;1.60;;
25341;SDS011;13298;48.792;9.154;2023-12-22T05:38:36;7.63;;;1.40;;
25341;SDS011;13298;48.792;9.154;2023-12-22T05:41:05;9.65;;;1.50;;
25341;SDS011;13298;48.792;9.154;2023-12-22T05:43:32;6.63;;;1.38;;
25341;SDS011;13298;48.792;9.154;2023-12-22T05:46:00;11.73;;;1.50;;
25341;SDS011;13298;48.792;9.154;2023-12-22T05:48:26;9.02;;;1.80;;
25341;SDS011;13298;48.792;9.154;2023-12-22T05:50:58;12.82;;;1.85;;
25341;SDS011;13298;48.792;9.154;2023-12-22T05:53:25;12.20;;;1.50;;
25341;SDS011;13298;48.792;9.154;2023-12-22T05:55:50;9.55;;;1.50;;
25341;SDS011;13298;48.792;9.154;2023-12-22T05:58:16;6.88;;;1.45;;
25341;SDS011;13298;48.792;9.154;2023-12-22T06:00:42;13.23;;;1.75;;
25341;SDS011;13298;48.792;9.154;2023-12-22T06:03:07;5.72;;;1.20;;
25341;SDS011;13298;48.792;9.154;2023-12-22T06:05:33;8.68;;;1.35;;
25341;SDS011;13298;48.792;9.154;2023-12-22T06:07:59;4.38;;;1.17;;
25341;SDS011;13298;48.792;9.154;2023-12-22T06:10:24;8.13;;;1.70;;
25341;SDS011;13298;48.792;9.154;2023-12-22T06:12:50;4.50;;;1.45;;
25341;SDS011;13298;48.792;9.154;2023-12-22T06:15:16;11.50;;;1.30;;
25341;SDS011;13298;48.792;9.154;2023-12-22T06:17:41;7.38;;;1.33;;
25341;SDS011;13298;48.792;9.154;2023-12-22T06:20:07;7.22;;;1.10;;
25341;SDS011;13298;48.792;9.154;2023-12-22T06:22:34;12.18;;;1.50;;
25341;SDS011;13298;48.792;9.154;2023-12-22T06:24:59;7.57;;;1.70;;
25341;SDS011;13298;48.792;9.154;2023-12-22T06:27:26;10.77;;;1.50;;
25341;SDS011;13298;48.792;9.154;2023-12-22T06:29:51;10.07;;;1.73;;
25341;SDS011;13298;48.792;9.154;2023-12-22T06:32:17;7.03;;;1.30;;
25341;SDS011;13298;48.792;9.154;2023-12-22T06:34:43;7.65;;;1.42;;
25341;SDS011;13298;48.792;9.154;2023-12-22T06:37:08;6.00;;;1.30;;
25341;SDS011;13298;48.792;9.154;2023-12-22T06:39:35;6.55;;;1.67;;
25341;SDS011;13298;48.792;9.154;2023-12-22T06:42:01;7.50;;;1.30;;
25341;SDS011;13298;48.792;9.154;2023-12-22T06:44:28;10.85;;;1.50;;
25341;SDS011;13298;48.792;9.154;2023-12-22T06:46:56;7.20;;;1.45;;
25341;SDS011;13298;48.792;9.154;2023-12-22T06:49:22;6.03;;;1.20;;
25341;SDS011;13298;48.792;9.154;2023-12-22T06:51:47;4.68;;;1.02;;
25341;SDS011;13298;48.792;9.154;2023-12-22T06:54:13;8.90;;;1.63;;
25341;SDS011;13298;48.792;9.154;2023-12-22T06:56:39;5.60;;;1.08;;
25341;SDS011;13298;48.792;9.154;2023-12-22T06:59:04;6.10;;;1.27;;
25341;SDS011;13298;48.792;9.154;2023-12-22T07:01:32;8.02;;;1.35;;
25341;SDS011;13298;48.792;9.154;2023-12-22T07:03:59;7.43;;;1.50;;
25341;SDS011;13298;48.792;9.154;2023-12-22T07:06:27;5.20;;;1.30;;
25341;SDS011;13298;48.792;9.154;2023-12-22T07:11:48;7.78;;;1.30;;
25341;SDS011;13298;48.792;9.154;2023-12-22T07:14:15;9.45;;;1.08;;
25341;SDS011;13298;48.792;9.154;2023-12-22T07:16:41;6.65;;;1.20;;
25341;SDS011;13298;48.792;9.154;2023-12-22T07:19:07;5.22;;;1.23;;
25341;SDS011;13298;48.792;9.154;2023-12-22T07:21:34;7.15;;;1.10;;
25341;SDS011;13298;48.792;9.154;2023-12-22T07:24:00;7.43;;;1.65;;
25341;SDS011;13298;48.792;9.154;2023-12-22T07:26:26;8.38;;;1.30;;
25341;SDS011;13298;48.792;9.154;2023-12-22T07:28:52;8.52;;;1.48;;
25341;SDS011;13298;48.792;9.154;2023-12-22T07:31:18;5.88;;;0.95;;
25341;SDS011;13298;48.792;9.154;2023-12-22T07:33:44;5.32;;;1.40;;
25341;SDS011;13298;48.792;9.154;2023-12-22T07:36:10;5.90;;;1.30;;
25341;SDS011;13298;48.792;9.154;2023-12-22T07:38:36;6.53;;;1.25;;
25341;SDS011;13298;48.792;9.154;2023-12-22T07:41:04;6.85;;;1.27;;
25341;SDS011;13298;48.792;9.154;2023-12-22T07:43:30;4.30;;;1.45;;
25341;SDS011;13298;48.792;9.154;2023-12-22T07:45:55;4.78;;;1.20;;
25341;SDS011;13298;48.792;9.154;2023-12-22T07:48:21;7.95;;;1.30;;
25341;SDS011;13298;48.792;9.154;2023-12-22T07:50:47;6.35;;;0.95;;
25341;SDS011;13298;48.792;9.154;2023-12-22T07:53:12;4.40;;;0.98;;
25341;SDS011;13298;48.792;9.154;2023-12-22T07:55:38;7.50;;;1.00;;
25341;SDS011;13298;48.792;9.154;2023-12-22T07:58:04;6.40;;;1.30;;
25341;SDS011;13298;48.792;9.154;2023-12-22T08:00:30;5.68;;;0.82;;
25341;SDS011;13298;48.792;9.154;2023-12-22T08:02:57;4.18;;;0.90;;
25341;SDS011;13298;48.792;9.154;2023-12-22T08:05:22;3.50;;;0.73;;
25341;SDS011;13298;48.792;9.154;2023-12-22T08:07:48;6.35;;;1.17;;
25341;SDS011;13298;48.792;9.154;2023-12-22T08:10:14;4.13;;;1.00;;
25341;SDS011;13298;48.792;9.154;2023-12-22T08:12:40;7.82;;;1.10;;
25341;SDS011;13298;48.792;9.154;2023-12-22T08:15:07;7.55;;;1.20;;
25341;SDS011;13298;48.792;9.154;2023-12-22T08:17:35;5.70;;;1.30;;
25341;SDS011;13298;48.792;9.154;2023-12-22T08:20:02;3.33;;;0.93;;
25341;SDS011;13298;48.792;9.154;2023-12-22T08:22:29;5.10;;;0.98;;
25341;SDS011;13298;48.792;9.154;2023-12-22T08:24:55;7.63;;;1.08;;
25341;SDS011;13298;48.792;9.154;2023-12-22T08:27:20;4.07;;;0.88;;
25341;SDS011;13298;48.792;9.154;2023-12-22T08:29:46;8.13;;;1.38;;
25341;SDS011;13298;48.792;9.154;2023-12-22T08:32:12;10.35;;;1.40;;
25341;SDS011;13298;48.792;9.154;2023-12-22T08:34:37;7.75;;;1.40;;
25341;SDS011;13298;48.792;9.154;2023-12-22T08:37:03;12.13;;;1.92;;
25341;SDS011;13298;48.792;9.154;2023-12-22T08:39:29;13.65;;;1.90;;
25341;SDS011;13298;48.792;9.154;2023-12-22T08:41:55;10.00;;;1.52;;
25341;SDS011;13298;48.792;9.154;2023-12-22T08:44:20;9.68;;;1.85;;
25341;SDS011;13298;48.792;9.154;2023-12-22T08:46:46;10.05;;;1.80;;
25341;SDS011;13298;48.792;9.154;2023-12-22T08:49:12;6.75;;;1.70;;
25341;SDS011;13298;48.792;9.154;2023-12-22T08:51:37;8.85;;;1.52;;
25341;SDS011;13298;48.792;9.154;2023-12-22T08:54:03;9.60;;;1.70;;
25341;SDS011;13298;48.792;9.154;2023-12-22T08:56:29;8.52;;;1.70;;
25341;SDS011;13298;48.792;9.154;2023-12-22T08:58:55;10.13;;;1.75;;
25341;SDS011;13298;48.792;9.154;2023-12-22T09:01:23;12.75;;;2.28;;
25341;SDS011;13298;48.792;9.154;2023-12-22T09:03:50;9.68;;;1.65;;
25341;SDS011;13298;48.792;9.154;2023-12-22T09:06:18;7.80;;;1.75;;
25341;SDS011;13298;48.792;9.154;2023-12-22T09:08:45;18.73;;;2.03;;
25341;SDS011;13298;48.792;9.154;2023-12-22T09:11:12;11.50;;;2.03;;
25341;SDS011;13298;48.792;9.154;2023-12-22T09:13:40;9.35;;;1.52;;
25341;SDS011;13298;48.792;9.154;2023-12-22T09:16:06;10.18;;;2.45;;
25341;SDS011;13298;48.792;9.154;2023-12-22T09:18:33;14.07;;;2.00;;
25341;SDS011;13298;48.792;9.154;2023-12-22T09:21:00;10.00;;;1.83;;
25341;SDS011;13298;48.792;9.154;2023-12-22T09:23:26;13.07;;;2.20;;
25341;SDS011;13298;48.792;9.154;2023-12-22T09:25:52;15.27;;;2.15;;
25341;SDS011;13298;48.792;9.154;2023-12-22T09:28:18;12.50;;;2.28;;
25341;SDS011;13298;48.792;9.154;2023-12-22T09:30:44;10.27;;;2.05;;
25341;SDS011;13298;48.792;9.154;2023-12-22T09:33:09;11.52;;;2.00;;
25341;SDS011;13298;48.792;9.154;2023-12-22T09:35:35;15.60;;;2.08;;
25341;SDS011;13298;48.792;9.154;2023-12-22T09:38:02;11.45;;;2.00;;
25341;SDS011;13298;48.792;9.154;2023-12-22T09:40:28;7.20;;;1.65;;
25341;SDS011;13298;48.792;9.154;2023-12-22T09:42:55;14.00;;;1.92;;
25341;SDS011;13298;48.792;9.154;2023-12-22T09:45:23;12.63;;;2.47;;
25341;SDS011;13298;48.792;9.154;2023-12-22T09:47:49;12.88;;;2.60;;
25341;SDS011;13298;48.792;9.154;2023-12-22T09:50:16;15.10;;;3.30;;
25341;SDS011;13298;48.792;9.154;2023-12-22T09:52:43;9.77;;;2.33;;
25341;SDS011;13298;48.792;9.154;2023-12-22T09:55:12;15.95;;;2.20;;
25341;SDS011;13298;48.792;9.154;2023-12-22T09:57:38;10.30;;;1.88;;
25341;SDS011;13298;48.792;9.154;2023-12-22T10:00:08;16.98;;;2.75;;
25341;SDS011;13298;48.792;9.154;2023-12-22T10:02:38;9.95;;;1.90;;
25341;SDS011;13298;48.792;9.154;2023-12-22T10:05:05;12.63;;;2.17;;
25341;SDS011;13298;48.792;9.154;2023-12-22T10:07:31;16.88;;;2.50;;
25341;SDS011;13298;48.792;9.154;2023-12-22T10:09:58;9.10;;;1.70;;
25341;SDS011;13298;48.792;9.154;2023-12-22T10:12:25;12.63;;;2.10;;
25341;SDS011;13298;48.792;9.154;2023-12-22T10:14:52;10.23;;;2.30;;
25341;SDS011;13298;48.792;9.154;2023-12-22T10:17:19;11.00;;;2.17;;
25341;SDS011;13298;48.792;9.154;2023-12-22T10:19:45;12.90;;;2.45;;
25341;SDS011;13298;48.792;9.154;2023-12-22T10:22:10;14.77;;;2.22;;
25341;SDS011;13298;48.792;9.154;2023-12-22T10:24:40;10.60;;;1.80;;
25341;SDS011;13298;48.792;9.154;2023-12-22T10:27:11;13.30;;;2.13;;
25341;SDS011;13298;48.792;9.154;2023-12-22T10:29:38;11.40;;;1.98;;
25341;SDS011;13298;48.792;9.154;2023-12-22T10:32:05;12.10;;;1.88;;
25341;SDS011;13298;48.792;9.154;2023-12-22T10:34:31;13.23;;;2.03;;
25341;SDS011;13298;48.792;9.154;2023-12-22T10:37:00;9.52;;;2.10;;
25341;SDS011;13298;48.792;9.154;2023-12-22T10:39:30;10.95;;;1.58;;
25341;SDS011;13298;48.792;9.154;2023-12-22T10:41:57;9.23;;;1.60;;
25341;SDS011;13298;48.792;9.154;2023-12-22T10:44:27;15.32;;;2.30;;
25341;SDS011;13298;48.792;9.154;2023-12-22T10:46:54;9.68;;;1.80;;
25341;SDS011;13298;48.792;9.154;2023-12-22T10:49:21;8.15;;;1.70;;
25341;SDS011;13298;48.792;9.154;2023-12-22T10:51:48;7.95;;;1.80;;
25341;SDS011;13298;48.792;9.154;2023-12-22T10:54:15;12.85;;;2.33;;
25341;SDS011;13298;48.792;9.154;2023-12-22T10:56:42;10.55;;;2.25;;
25341;SDS011;13298;48.792;9.154;2023-12-22T10:59:10;9.30;;;1.90;;
25341;SDS011;13298;48.792;9.154;2023-12-22T11:01:37;5.10;;;1.48;;
25341;SDS011;13298;48.792;9.154;2023-12-22T11:04:05;6.95;;;1.50;;
25341;SDS011;13298;48.792;9.154;2023-12-22T11:06:36;8.38;;;1.50;;
25341;SDS011;13298;48.792;9.154;2023-12-22T11:09:06;7.57;;;1.30;;
25341;SDS011;13298;48.792;9.154;2023-12-22T11:11:37;6.47;;;1.25;;
25341;SDS011;13298;48.792;9.154;2023-12-22T11:14:05;8.73;;;1.52;;
25341;SDS011;13298;48.792;9.154;2023-12-22T11:16:33;6.03;;;1.02;;
25341;SDS011;13298;48.792;9.154;2023-12-22T11:19:01;7.72;;;1.20;;
25341;SDS011;13298;48.792;9.154;2023-12-22T11:21:28;4.00;;;1.10;;
25341;SDS011;13298;48.792;9.154;2023-12-22T11:24:15;5.28;;;1.05;;
25341;SDS011;13298;48.792;9.154;2023-12-22T11:26:42;5.78;;;1.05;;
25341;SDS011;13298;48.792;9.154;2023-12-22T11:29:08;3.90;;;0.80;;
25341;SDS011;13298;48.792;9.154;2023-12-22T11:31:35;4.30;;;1.17;;
25341;SDS011;13298;48.792;9.154;2023-12-22T11:34:02;6.55;;;1.35;;
25341;SDS011;13298;48.792;9.154;2023-12-22T11:36:31;2.90;;;0.85;;
25341;SDS011;13298;48.792;9.154;2023-12-22T11:38:57;5.00;;;1.00;;
25341;SDS011;13298;48.792;9.154;2023-12-22T11:41:27;7.95;;;1.15;;
25341;SDS011;13298;48.792;9.154;2023-12-22T11:43:55;4.78;;;1.25;;
25341;SDS011;13298;48.792;9.154;2023-12-22T11:46:23;3.75;;;0.57;;
25341;SDS011;13298;48.792;9.154;2023-12-22T11:48:49;2.58;;;0.70;;
25341;SDS011;13298;48.792;9.154;2023-12-22T11:51:17;5.47;;;0.95;;
25341;SDS011;13298;48.792;9.154;2023-12-22T11:53:43;3.38;;;0.77;;
25341;SDS011;13298;48.792;9.154;2023-12-22T11:56:10;3.47;;;0.70;;
25341;SDS011;13298;48.792;9.154;2023-12-22T11:58:39;3.40;;;0.77;;
25341;SDS011;13298;48.792;9.154;2023-12-22T12:01:16;4.65;;;0.60;;
25341;SDS011;13298;48.792;9.154;2023-12-22T12:03:50;3.85;;;0.70;;
25341;SDS011;13298;48.792;9.154;2023-12-22T12:08:54;3.30;;;0.73;;
25341;SDS011;13298;48.792;9.154;2023-12-22T12:11:21;3.15;;;0.55;;
25341;SDS011;13298;48.792;9.154;2023-12-22T12:13:48;3.15;;;0.50;;
25341;SDS011;13298;48.792;9.154;2023-12-22T12:16:18;1.88;;;0.52;;
25341;SDS011;13298;48.792;9.154;2023-12-22T12:18:49;3.25;;;0.73;;
25341;SDS011;13298;48.792;9.154;2023-12-22T12:21:15;2.10;;;0.63;;
25341;SDS011;13298;48.792;9.154;2023-12-22T12:23:41;3.00;;;0.80;;
25341;SDS011;13298;48.792;9.154;2023-12-22T12:26:08;3.50;;;0.50;;
25341;SDS011;13298;48.792;9.154;2023-12-22T12:28:35;3.63;;;0.70;;
25341;SDS011;13298;48.792;9.154;2023-12-22T12:31:07;1.77;;;0.50;;
25341;SDS011;13298;48.792;9.154;2023-12-22T12:33:35;1.08;;;0.35;;
25341;SDS011;13298;48.792;9.154;2023-12-22T12:36:01;1.85;;;0.60;;
25341;SDS011;13298;48.792;9.154;2023-12-22T12:38:40;0.90;;;0.50;;
25341;SDS011;13298;48.792;9.154;2023-12-22T12:41:29;1.42;;;0.50;;
25341;SDS011;13298;48.792;9.154;2023-12-22T12:43:59;2.00;;;0.40;;
25341;SDS011;13298;48.792;9.154;2023-12-22T12:46:32;2.30;;;0.47;;
25341;SDS011;13298;48.792;9.154;2023-12-22T12:49:03;1.85;;;0.50;;
25341;SDS011;13298;48.792;9.154;2023-12-22T12:51:35;1.35;;;0.47;;
25341;SDS011;13298;48.792;9.154;2023-12-22T12:54:03;1.67;;;0.43;;
25341;SDS011;13298;48.792;9.154;2023-12-22T12:56:29;1.20;;;0.30;;
25341;SDS011;13298;48.792;9.154;2023-12-22T12:59:06;1.95;;;0.30;;
25341;SDS011;13298;48.792;9.154;2023-12-22T13:01:40;1.90;;;0.40;;
25341;SDS011;13298;48.792;9.154;2023-12-22T13:04:08;0.73;;;0.30;;
25341;SDS011;13298;48.792;9.154;2023-12-22T13:06:34;0.63;;;0.32;;
25341;SDS011;13298;48.792;9.154;2023-12-22T13:09:00;2.03;;;0.80;;
25341;SDS011;13298;48.792;9.154;2023-12-22T13:11:26;1.20;;;0.40;;
25341;SDS011;13298;48.792;9.154;2023-12-22T13:13:55;0.68;;;0.38;;
25341;SDS011;13298;48.792;9.154;2023-12-22T13:16:24;0.30;;;0.22;;
25341;SDS011;13298;48.792;9.154;2023-12-22T13:18:52;0.95;;;0.30;;
25341;SDS011;13298;48.792;9.154;2023-12-22T13:21:18;0.40;;;0.20;;
25341;SDS011;13298;48.792;9.154;2023-12-22T13:23:44;0.20;;;0.20;;
25341;SDS011;13298;48.792;9.154;2023-12-22T13:26:19;0.43;;;0.20;;
25341;SDS011;13298;48.792;9.154;2023-12-22T13:28:45;0.40;;;0.25;;
25341;SDS011;13298;48.792;9.154;2023-12-22T13:31:14;1.08;;;0.20;;
25341;SDS011;13298;48.792;9.154;2023-12-22T13:33:43;0.65;;;0.25;;
25341;SDS011;13298;48.792;9.154;2023-12-22T13:36:09;0.80;;;0.20;;
25341;SDS011;13298;48.792;9.154;2023-12-22T13:38:35;0.45;;;0.20;;
25341;SDS011;13298;48.792;9.154;2023-12-22T13:41:01;0.57;;;0.20;;
25341;SDS011;13298;48.792;9.154;2023-12-22T13:43:28;0.47;;;0.20;;
25341;SDS011;13298;48.792;9.154;2023-12-22T13:45:54;0.70;;;0.28;;
25341;SDS011;13298;48.792;9.154;2023-12-22T13:48:20;0.15;;;0.10;;
25341;SDS011;13298;48.792;9.154;2023-12-22T13:50:56;0.20;;;0.20;;
25341;SDS011;13298;48.792;9.154;2023-12-22T13:53:24;0.30;;;0.10;;
25341;SDS011;13298;48.792;9.154;2023-12-22T13:55:53;0.20;;;0.10;;
25341;SDS011;13298;48.792;9.154;2023-12-22T13:58:23;0.57;;;0.20;;
25341;SDS011;13298;48.792;9.154;2023-12-22T14:00:49;0.25;;;0.15;;
25341;SDS011;13298;48.792;9.154;2023-12-22T14:03:16;0.45;;;0.20;;
25341;SDS011;13298;48.792;9.154;2023-12-22T14:05:42;4.53;;;0.65;;
25341;SDS011;13298;48.792;9.154;2023-12-22T14:08:08;0.38;;;0.22;;
25341;SDS011;13298;48.792;9.154;2023-12-22T14:10:34;0.30;;;0.20;;
25341;SDS011;13298;48.792;9.154;2023-12-22T14:13:00;0.93;;;0.25;;
25341;SDS011;13298;48.792;9.154;2023-12-22T14:15:27;0.10;;;0.10;;
25341;SDS011;13298;48.792;9.154;2023-12-22T14:17:55;0.63;;;0.25;;
25341;SDS011;13298;48.792;9.154;2023-12-22T14:20:21;0.38;;;0.25;;
25341;SDS011;13298;48.792;9.154;2023-12-22T14:22:47;0.40;;;0.20;;
25341;SDS011;13298;48.792;9.154;2023-12-22T14:25:13;0.95;;;0.30;;
25341;SDS011;13298;48.792;9.154;2023-12-22T14:27:38;0.10;;;0.10;;
25341;SDS011;13298;48.792;9.154;2023-12-22T14:30:04;2.13;;;0.20;;
25341;SDS011;13298;48.792;9.154;2023-12-22T14:32:31;0.73;;;0.20;;
25341;SDS011;13298;48.792;9.154;2023-12-22T14:34:56;0.28;;;0.10;;
25341;SDS011;13298;48.792;9.154;2023-12-22T14:37:22;0.30;;;0.10;;
25341;SDS011;13298;48.792;9.154;2023-12-22T14:39:48;1.25;;;0.10;;
25341;SDS011;13298;48.792;9.154;2023-12-22T14:42:13;0.47;;;0.20;;
25341;SDS011;13298;48.792;9.154;2023-12-22T14:44:40;0.32;;;0.20;;
25341;SDS011;13298;48.792;9.154;2023-12-22T14:47:06;0.30;;;0.20;;
25341;SDS011;13298;48.792;9.154;2023-12-22T14:49:32;0.20;;;0.20;;
25341;SDS011;13298;48.792;9.154;2023-12-22T14:51:58;2.90;;;0.20;;
25341;SDS011;13298;48.792;9.154;2023-12-22T14:54:24;0.20;;;0.20;;